createdAt,value
2022-07-29T00:01:43.232Z,4.80
2022-07-29T00:04:11.679Z,4.13
2022-07-29T00:06:40.075Z,4.32
2022-07-29T00:09:09.101Z,4.03
2022-07-29T00:11:37.530Z,4.53
2022-07-29T00:14:07.672Z,4.68
2022-07-29T00:16:36.457Z,5.35
2022-07-29T00:19:04.991Z,4.40
2022-07-29T00:21:33.368Z,3.97
2022-07-29T00:24:01.823Z,3.85
2022-07-29T00:26:32.694Z,3.63
2022-07-29T00:29:32.556Z,4.40
2022-07-29T00:31:51.776Z,4.55
2022-07-29T00:34:37.604Z,4.32
2022-07-29T00:37:06.158Z,4.70
2022-07-29T00:39:36.309Z,4.22
2022-07-29T00:42:05.755Z,4.43
2022-07-29T00:44:39.303Z,4.65
2022-07-29T00:47:09.640Z,3.95
2022-07-29T00:49:38.667Z,5.00
2022-07-29T00:52:09.640Z,4.93
2022-07-29T00:54:44.262Z,4.57
2022-07-29T00:57:14.753Z,4.53
2022-07-29T00:59:43.051Z,4.32
2022-07-29T01:02:12.891Z,5.03
2022-07-29T01:04:42.371Z,4.90
2022-07-29T01:07:10.746Z,4.82
2022-07-29T01:09:45.275Z,4.45
2022-07-29T01:12:18.727Z,5.25
2022-07-29T01:14:48.359Z,5.00
2022-07-29T01:17:23.045Z,5.10
2022-07-29T01:19:58.041Z,4.78
2022-07-29T01:22:32.956Z,4.82
2022-07-29T01:25:39.904Z,4.97
2022-07-29T01:28:24.543Z,4.50
2022-07-29T01:30:57.424Z,5.10
2022-07-29T01:33:46.285Z,5.75
2022-07-29T01:36:18.361Z,4.30
2022-07-29T01:38:56.947Z,5.18
2022-07-29T01:41:25.771Z,5.18
2022-07-29T01:43:59.218Z,4.60
2022-07-29T01:46:34.121Z,5.30
2022-07-29T01:49:09.172Z,5.03
2022-07-29T01:51:45.705Z,4.43
2022-07-29T01:54:20.695Z,4.43
2022-07-29T01:56:53.131Z,4.95
2022-07-29T01:59:24.253Z,5.20
2022-07-29T02:01:57.104Z,4.53
2022-07-29T02:04:29.612Z,4.82
2022-07-29T02:07:07.835Z,4.18
2022-07-29T02:09:39.001Z,4.25
2022-07-29T02:12:09.383Z,4.55
2022-07-29T02:14:41.461Z,4.55
2022-07-29T02:17:14.373Z,4.80
2022-07-29T02:19:46.033Z,4.68
2022-07-29T02:22:15.521Z,4.63
2022-07-29T02:24:46.620Z,4.05
2022-07-29T02:27:16.175Z,4.97
2022-07-29T02:29:45.221Z,4.57
2022-07-29T02:32:16.406Z,4.50
2022-07-29T02:34:45.730Z,4.55
2022-07-29T02:37:15.238Z,4.55
2022-07-29T02:39:45.822Z,4.05
2022-07-29T02:42:18.036Z,4.43
2022-07-29T02:44:46.649Z,5.28
2022-07-29T02:47:22.734Z,4.38
2022-07-29T02:49:56.069Z,4.38
2022-07-29T02:52:28.417Z,4.35
2022-07-29T02:55:00.230Z,5.50
2022-07-29T02:57:35.867Z,4.72
2022-07-29T03:00:25.767Z,4.70
2022-07-29T03:02:57.417Z,5.25
2022-07-29T03:05:26.444Z,4.13
2022-07-29T03:07:58.986Z,3.97
2022-07-29T03:10:28.536Z,4.95
2022-07-29T03:12:59.046Z,4.57
2022-07-29T03:15:28.260Z,4.75
2022-07-29T03:17:58.608Z,4.55
2022-07-29T03:20:27.121Z,4.03
2022-07-29T03:22:55.434Z,3.92
2022-07-29T03:25:24.267Z,4.72
2022-07-29T03:27:52.486Z,5.70
2022-07-29T03:30:22.191Z,4.65
2022-07-29T03:32:52.337Z,5.55
2022-07-29T03:35:22.505Z,5.18
2022-07-29T03:37:51.181Z,5.00
2022-07-29T03:40:23.990Z,6.05
2022-07-29T03:42:56.026Z,6.57
2022-07-29T03:45:26.024Z,4.97
2022-07-29T03:48:00.889Z,6.28
2022-07-29T03:50:32.035Z,6.07
2022-07-29T03:53:00.781Z,6.28
2022-07-29T03:55:31.638Z,5.80
2022-07-29T03:58:03.061Z,6.18
2022-07-29T04:00:34.558Z,4.72
2022-07-29T04:03:03.723Z,4.50
2022-07-29T04:05:33.457Z,4.93
2022-07-29T04:08:01.759Z,4.40
2022-07-29T04:10:32.211Z,4.65
2022-07-29T04:13:02.878Z,4.65
2022-07-29T04:15:31.985Z,4.55
2022-07-29T04:18:00.838Z,4.82
2022-07-29T04:20:29.349Z,4.50
2022-07-29T04:22:59.116Z,4.00
2022-07-29T04:25:27.719Z,5.10
2022-07-29T04:28:04.858Z,5.65
2022-07-29T04:30:34.558Z,4.82
2022-07-29T04:33:03.130Z,3.83
2022-07-29T04:35:38.378Z,4.95
2022-07-29T04:38:15.573Z,5.10
2022-07-29T04:40:45.446Z,4.55
2022-07-29T04:43:16.815Z,4.15
2022-07-29T04:45:50.986Z,4.50
2022-07-29T04:48:19.459Z,4.30
2022-07-29T04:50:47.715Z,3.90
2022-07-29T04:53:17.252Z,4.50
2022-07-29T04:55:45.877Z,4.00
2022-07-29T04:58:14.226Z,4.43
2022-07-29T05:00:42.496Z,4.72
2022-07-29T05:03:11.083Z,3.78
2022-07-29T05:05:39.465Z,4.20
2022-07-29T05:08:07.789Z,4.35
2022-07-29T05:10:39.058Z,3.85
2022-07-29T05:13:07.869Z,4.07
2022-07-29T05:15:37.445Z,4.13
2022-07-29T05:18:06.464Z,4.05
2022-07-29T05:20:35.618Z,3.25
2022-07-29T05:23:04.843Z,4.40
2022-07-29T05:25:43.719Z,4.85
2022-07-29T05:28:14.829Z,4.47
2022-07-29T05:30:43.228Z,4.03
2022-07-29T05:33:35.633Z,3.78
2022-07-29T05:36:00.797Z,4.13
2022-07-29T05:38:29.654Z,4.55
2022-07-29T05:40:59.621Z,4.20
2022-07-29T05:43:29.860Z,3.65
2022-07-29T05:45:58.610Z,3.95
2022-07-29T05:48:27.315Z,4.20
2022-07-29T05:50:56.510Z,3.97
2022-07-29T05:53:25.088Z,4.22
2022-07-29T05:55:53.818Z,4.25
2022-07-29T05:58:22.597Z,3.42
2022-07-29T06:00:52.227Z,4.85
2022-07-29T06:03:20.465Z,3.97
2022-07-29T06:05:48.932Z,3.58
2022-07-29T06:08:17.160Z,4.00
2022-07-29T06:10:46.560Z,3.75
2022-07-29T06:13:16.850Z,3.53
2022-07-29T06:15:46.285Z,4.20
2022-07-29T06:18:15.944Z,4.35
2022-07-29T06:20:44.736Z,3.67
2022-07-29T06:23:12.989Z,4.00
2022-07-29T06:25:42.352Z,3.17
2022-07-29T06:28:10.798Z,3.92
2022-07-29T06:30:39.217Z,4.43
2022-07-29T06:33:07.849Z,4.18
2022-07-29T06:35:41.916Z,4.13
2022-07-29T06:38:29.877Z,4.25
2022-07-29T06:41:03.184Z,3.58
2022-07-29T06:43:52.065Z,4.43
2022-07-29T06:46:24.117Z,3.88
2022-07-29T06:48:53.627Z,3.05
2022-07-29T06:51:24.355Z,3.42
2022-07-29T06:53:58.082Z,4.20
2022-07-29T06:56:28.587Z,3.33
2022-07-29T06:58:57.192Z,3.70
2022-07-29T07:01:25.507Z,2.58
2022-07-29T07:03:53.742Z,3.08
2022-07-29T07:06:23.771Z,3.05
2022-07-29T07:08:51.985Z,3.83
2022-07-29T07:11:20.297Z,3.22
2022-07-29T07:13:48.952Z,3.90
2022-07-29T07:16:17.391Z,2.30
2022-07-29T07:18:46.211Z,2.90
2022-07-29T07:21:18.772Z,2.33
2022-07-29T07:23:49.045Z,2.20
2022-07-29T07:26:17.793Z,2.92
2022-07-29T07:28:46.003Z,2.75
2022-07-29T07:31:15.194Z,2.58
2022-07-29T07:33:43.661Z,2.83
2022-07-29T07:36:12.013Z,2.70
2022-07-29T07:38:40.378Z,4.03
2022-07-29T07:41:10.186Z,3.47
2022-07-29T07:43:38.815Z,3.20
2022-07-29T07:46:07.071Z,3.25
2022-07-29T07:48:35.835Z,2.75
2022-07-29T07:51:04.670Z,3.22
2022-07-29T07:53:32.904Z,3.13
2022-07-29T07:56:16.988Z,2.97
2022-07-29T07:58:46.763Z,3.28
2022-07-29T08:01:15.346Z,3.30
2022-07-29T08:03:43.848Z,3.75
2022-07-29T08:06:12.026Z,2.88
2022-07-29T08:08:40.733Z,3.25
2022-07-29T08:11:09.945Z,2.80
2022-07-29T08:13:39.432Z,3.13
2022-07-29T08:16:14.086Z,2.28
2022-07-29T08:18:44.842Z,2.92
2022-07-29T08:21:15.281Z,3.22
2022-07-29T08:23:57.625Z,2.75
2022-07-29T08:26:27.563Z,2.90
2022-07-29T08:28:55.991Z,2.78
2022-07-29T08:31:25.867Z,2.58
2022-07-29T08:33:54.361Z,3.47
2022-07-29T08:36:23.045Z,3.20
2022-07-29T08:38:51.898Z,3.38
2022-07-29T08:41:20.749Z,2.80
2022-07-29T08:43:49.337Z,3.53
2022-07-29T08:46:18.448Z,2.63
2022-07-29T08:48:49.204Z,2.67
2022-07-29T08:51:21.577Z,2.95
2022-07-29T08:53:51.339Z,2.38
2022-07-29T08:56:21.405Z,2.35
2022-07-29T08:58:52.282Z,2.97
2022-07-29T09:01:36.482Z,2.85
2022-07-29T09:04:14.216Z,2.92
2022-07-29T09:06:46.847Z,2.53
2022-07-29T09:09:15.672Z,2.53
2022-07-29T09:11:44.818Z,2.50
2022-07-29T09:14:15.010Z,2.97
2022-07-29T09:16:54.040Z,3.05
2022-07-29T09:19:30.328Z,3.03
2022-07-29T09:22:03.065Z,2.95
2022-07-29T09:24:41.153Z,2.63
2022-07-29T09:27:28.092Z,2.53
2022-07-29T09:30:01.436Z,2.00
2022-07-29T09:32:30.550Z,2.15
2022-07-29T09:35:20.449Z,2.63
2022-07-29T09:37:49.611Z,1.73
2022-07-29T09:40:19.526Z,2.00
2022-07-29T09:42:48.482Z,1.90
2022-07-29T09:45:30.258Z,1.90
2022-07-29T09:48:01.319Z,2.17
2022-07-29T09:50:42.367Z,2.60
2022-07-29T09:53:11.406Z,2.60
2022-07-29T09:55:50.776Z,1.90
2022-07-29T09:58:22.679Z,2.65
2022-07-29T10:00:52.755Z,2.65
2022-07-29T10:03:22.472Z,2.63
2022-07-29T10:08:46.443Z,2.60
2022-07-29T10:11:17.286Z,2.95
2022-07-29T10:13:47.166Z,2.95
2022-07-29T10:16:17.285Z,2.42
2022-07-29T10:18:47.795Z,2.75
2022-07-29T10:21:36.028Z,2.38
2022-07-29T10:24:14.794Z,2.60
2022-07-29T10:26:44.155Z,2.15
2022-07-29T10:29:13.746Z,2.08
2022-07-29T10:31:52.064Z,2.47
2022-07-29T10:34:27.865Z,2.92
2022-07-29T10:37:05.191Z,3.80
2022-07-29T10:39:49.626Z,2.03
2022-07-29T10:42:33.242Z,2.00
2022-07-29T10:45:04.308Z,2.25
2022-07-29T10:47:35.341Z,3.25
2022-07-29T10:50:06.127Z,3.00
2022-07-29T10:52:55.644Z,2.50
2022-07-29T10:55:35.893Z,2.50
2022-07-29T10:58:15.498Z,2.25
2022-07-29T11:00:47.943Z,2.45
2022-07-29T11:03:49.666Z,3.08
2022-07-29T11:06:26.999Z,2.60
2022-07-29T11:09:20.184Z,2.97
2022-07-29T11:11:51.530Z,1.90
2022-07-29T11:14:57.761Z,2.30
2022-07-29T11:17:26.868Z,2.78
2022-07-29T11:20:50.906Z,2.78
2022-07-29T11:23:26.082Z,1.98
2022-07-29T11:26:18.856Z,2.10
2022-07-29T11:29:00.313Z,2.65
2022-07-29T11:31:37.426Z,2.92
2022-07-29T11:34:30.254Z,2.88
2022-07-29T11:37:27.664Z,2.60
2022-07-29T11:40:21.314Z,2.47
2022-07-29T11:42:52.125Z,2.95
2022-07-29T11:45:44.122Z,3.05
2022-07-29T11:51:12.220Z,2.45
2022-07-29T11:53:41.743Z,3.55
2022-07-29T11:56:11.330Z,2.58
2022-07-29T11:58:44.683Z,2.83
2022-07-29T12:01:19.449Z,2.58
2022-07-29T12:03:47.796Z,2.30
2022-07-29T12:06:18.358Z,2.75
2022-07-29T12:08:47.404Z,2.38
2022-07-29T12:11:22.794Z,2.40
2022-07-29T12:13:52.918Z,2.35
2022-07-29T12:16:25.970Z,2.67
2022-07-29T12:18:59.793Z,2.55
2022-07-29T12:21:28.788Z,2.70
2022-07-29T12:24:05.629Z,2.70
2022-07-29T12:26:38.153Z,2.50
2022-07-29T12:29:14.088Z,3.13
2022-07-29T12:31:47.346Z,2.45
2022-07-29T12:34:17.766Z,1.95
2022-07-29T12:36:46.425Z,2.88
2022-07-29T12:39:15.020Z,2.40
2022-07-29T12:41:43.601Z,2.10
2022-07-29T12:44:12.367Z,2.38
2022-07-29T12:46:40.657Z,2.40
2022-07-29T12:49:10.984Z,2.63
2022-07-29T12:51:41.775Z,2.75
2022-07-29T12:54:12.444Z,2.30
2022-07-29T12:56:43.539Z,2.45
2022-07-29T12:59:17.773Z,2.00
2022-07-29T13:01:48.065Z,2.03
2022-07-29T13:04:28.581Z,2.65
2022-07-29T13:07:08.328Z,2.60
2022-07-29T13:09:42.506Z,2.78
2022-07-29T13:12:12.081Z,2.15
2022-07-29T13:14:42.117Z,2.25
2022-07-29T13:17:12.281Z,2.92
2022-07-29T13:19:43.238Z,2.38
2022-07-29T13:22:12.869Z,2.30
2022-07-29T13:24:51.827Z,2.35
2022-07-29T13:27:21.588Z,2.70
2022-07-29T13:29:52.367Z,2.25
2022-07-29T13:32:27.676Z,2.30
2022-07-29T13:34:59.061Z,2.85
2022-07-29T13:37:30.411Z,2.30
2022-07-29T13:40:00.239Z,2.80
2022-07-29T13:42:28.976Z,2.67
2022-07-29T13:44:57.180Z,2.78
2022-07-29T13:47:32.680Z,2.63
2022-07-29T13:50:03.130Z,2.03
2022-07-29T13:52:31.806Z,2.63
2022-07-29T13:55:00.120Z,2.47
2022-07-29T13:57:29.237Z,2.25
2022-07-29T13:59:58.076Z,2.33
2022-07-29T14:02:26.518Z,2.50
2022-07-29T14:04:55.245Z,2.60
2022-07-29T14:07:25.526Z,2.50
2022-07-29T14:09:53.804Z,1.92
2022-07-29T14:12:22.085Z,2.20
2022-07-29T14:14:50.591Z,2.17
2022-07-29T14:17:18.914Z,2.05
2022-07-29T14:19:47.260Z,2.45
2022-07-29T14:22:15.693Z,2.03
2022-07-29T14:24:46.109Z,2.45
2022-07-29T14:27:15.242Z,2.08
2022-07-29T14:29:43.763Z,2.10
2022-07-29T14:32:12.471Z,2.15
2022-07-29T14:34:41.264Z,2.42
2022-07-29T14:37:16.102Z,1.90
2022-07-29T14:39:46.061Z,2.00
2022-07-29T14:42:14.976Z,1.98
2022-07-29T14:44:43.281Z,2.25
2022-07-29T14:47:12.972Z,2.03
2022-07-29T14:49:41.599Z,2.25
2022-07-29T14:52:09.840Z,2.35
2022-07-29T14:54:38.164Z,1.92
2022-07-29T14:57:08.094Z,2.03
2022-07-29T14:59:36.799Z,2.55
2022-07-29T15:02:05.157Z,1.95
2022-07-29T15:04:34.038Z,2.25
2022-07-29T15:07:02.666Z,2.03
2022-07-29T15:09:30.897Z,2.10
2022-07-29T15:11:59.822Z,2.22
2022-07-29T15:14:29.899Z,2.08
2022-07-29T15:16:58.323Z,2.45
2022-07-29T15:19:27.388Z,2.00
2022-07-29T15:21:59.621Z,2.22
2022-07-29T15:24:28.612Z,2.83
2022-07-29T15:26:57.051Z,1.85
2022-07-29T15:29:25.573Z,2.13
2022-07-29T15:31:56.216Z,2.42
2022-07-29T15:34:25.151Z,1.67
2022-07-29T15:36:54.106Z,1.92
2022-07-29T15:39:23.652Z,1.85
2022-07-29T15:41:52.096Z,1.60
2022-07-29T15:44:20.920Z,2.20
2022-07-29T15:47:06.102Z,2.08
2022-07-29T15:49:48.560Z,2.25
2022-07-29T15:52:25.206Z,2.00
2022-07-29T15:54:55.890Z,2.05
2022-07-29T15:57:25.638Z,2.13
2022-07-29T15:59:54.239Z,2.80
2022-07-29T16:02:22.570Z,2.38
2022-07-29T16:04:52.457Z,2.47
2022-07-29T16:07:21.166Z,2.25
2022-07-29T16:09:53.025Z,2.08
2022-07-29T16:12:22.480Z,2.08
2022-07-29T16:14:51.499Z,2.03
2022-07-29T16:17:20.670Z,2.00
2022-07-29T16:19:49.356Z,1.63
2022-07-29T16:22:19.056Z,2.00
2022-07-29T16:24:47.371Z,2.28
2022-07-29T16:27:15.863Z,1.90
2022-07-29T16:29:44.128Z,1.95
2022-07-29T16:32:12.496Z,2.00
2022-07-29T16:34:41.540Z,1.90
2022-07-29T16:37:09.786Z,2.20
2022-07-29T16:39:39.655Z,1.88
2022-07-29T16:42:08.155Z,1.50
2022-07-29T16:44:36.941Z,1.92
2022-07-29T16:47:05.653Z,2.13
2022-07-29T16:49:34.148Z,2.20
2022-07-29T16:52:02.503Z,2.08
2022-07-29T16:54:30.864Z,1.88
2022-07-29T16:57:02.302Z,2.17
2022-07-29T16:59:31.182Z,2.58
2022-07-29T17:02:02.540Z,2.05
2022-07-29T17:04:31.693Z,1.88
2022-07-29T17:07:00.546Z,1.67
2022-07-29T17:09:29.385Z,1.27
2022-07-29T17:11:58.143Z,1.85
2022-07-29T17:14:31.499Z,2.40
2022-07-29T17:17:03.179Z,1.50
2022-07-29T17:19:33.680Z,2.05
2022-07-29T17:22:10.610Z,2.00
2022-07-29T17:24:43.364Z,1.70
2022-07-29T17:27:12.512Z,2.17
2022-07-29T17:29:42.326Z,1.95
2022-07-29T17:32:11.869Z,1.83
2022-07-29T17:34:42.125Z,2.35
2022-07-29T17:37:12.205Z,2.08
2022-07-29T17:39:42.776Z,2.15
2022-07-29T17:42:13.709Z,3.38
2022-07-29T17:44:43.601Z,2.58
2022-07-29T17:47:16.343Z,2.10
2022-07-29T17:49:45.367Z,2.53
2022-07-29T17:52:14.033Z,2.60
2022-07-29T17:54:42.256Z,2.13
2022-07-29T17:57:10.553Z,2.00
2022-07-29T17:59:39.011Z,2.60
2022-07-29T18:02:08.719Z,1.67
2022-07-29T18:04:37.041Z,2.33
2022-07-29T18:07:05.730Z,2.40
2022-07-29T18:09:34.066Z,2.28
2022-07-29T18:12:02.354Z,2.78
2022-07-29T18:14:45.496Z,2.25
2022-07-29T18:17:15.363Z,1.65
2022-07-29T18:19:43.626Z,2.30
2022-07-29T18:22:13.261Z,1.90
2022-07-29T18:24:41.880Z,2.00
2022-07-29T18:27:10.104Z,2.10
2022-07-29T18:29:38.454Z,1.95
2022-07-29T18:32:07.636Z,1.90
2022-07-29T18:34:37.579Z,2.28
2022-07-29T18:37:05.876Z,2.65
2022-07-29T18:39:34.512Z,2.28
2022-07-29T18:42:02.891Z,2.83
2022-07-29T18:44:31.243Z,2.45
2022-07-29T18:47:00.081Z,3.42
2022-07-29T18:49:28.828Z,3.38
2022-07-29T18:51:58.753Z,2.55
2022-07-29T18:54:27.564Z,2.92
2022-07-29T18:56:55.990Z,2.60
2022-07-29T18:59:25.221Z,3.25
2022-07-29T19:01:54.399Z,2.85
2022-07-29T19:04:22.929Z,3.03
2022-07-29T19:06:51.624Z,3.83
2022-07-29T19:09:21.635Z,3.15
2022-07-29T19:11:55.518Z,2.42
2022-07-29T19:14:24.773Z,3.40
2022-07-29T19:16:53.197Z,3.28
2022-07-29T19:19:21.469Z,2.58
2022-07-29T19:21:49.964Z,3.40
2022-07-29T19:24:18.326Z,2.97
2022-07-29T19:26:48.033Z,2.88
2022-07-29T19:29:17.429Z,3.10
2022-07-29T19:31:46.008Z,2.95
2022-07-29T19:34:14.417Z,2.58
2022-07-29T19:36:43.210Z,3.33
2022-07-29T19:39:11.576Z,2.83
2022-07-29T19:41:40.255Z,2.75
2022-07-29T19:44:11.371Z,3.25
2022-07-29T19:46:39.757Z,2.80
2022-07-29T19:49:08.205Z,3.00
2022-07-29T19:51:37.272Z,4.00
2022-07-29T19:54:06.381Z,3.72
2022-07-29T19:56:34.720Z,3.42
2022-07-29T19:59:08.856Z,4.22
2022-07-29T20:01:37.304Z,3.33
2022-07-29T20:04:05.978Z,3.60
2022-07-29T20:06:34.994Z,3.50
2022-07-29T20:09:04.304Z,3.10
2022-07-29T20:11:36.675Z,2.97
2022-07-29T20:14:06.393Z,2.92
2022-07-29T20:16:36.419Z,2.55
2022-07-29T20:19:05.026Z,2.70
2022-07-29T20:21:34.015Z,2.55
2022-07-29T20:24:04.425Z,3.10
2022-07-29T20:26:32.939Z,2.75
2022-07-29T20:29:05.133Z,3.03
2022-07-29T20:31:35.012Z,3.05
2022-07-29T20:34:03.918Z,2.85
2022-07-29T20:36:32.694Z,3.35
2022-07-29T20:39:01.099Z,3.45
2022-07-29T20:41:29.866Z,3.05
2022-07-29T20:43:58.243Z,2.58
2022-07-29T20:46:26.743Z,3.30
2022-07-29T20:48:56.840Z,3.03
2022-07-29T20:51:25.684Z,2.80
2022-07-29T20:53:54.156Z,3.13
2022-07-29T20:56:23.058Z,3.13
2022-07-29T20:58:51.518Z,3.10
2022-07-29T21:01:19.919Z,3.65
2022-07-29T21:03:48.519Z,3.03
2022-07-29T21:06:18.154Z,3.60
2022-07-29T21:08:46.446Z,3.08
2022-07-29T21:11:14.970Z,3.38
2022-07-29T21:13:45.443Z,4.00
2022-07-29T21:16:14.883Z,3.47
2022-07-29T21:18:46.441Z,3.30
2022-07-29T21:21:17.353Z,3.92
2022-07-29T21:23:46.781Z,3.75
2022-07-29T21:26:16.018Z,2.95
2022-07-29T21:28:43.918Z,3.60
2022-07-29T21:31:14.156Z,3.50
2022-07-29T21:33:43.910Z,3.05
2022-07-29T21:36:46.821Z,3.00
2022-07-29T21:39:07.227Z,3.53
2022-07-29T21:41:36.146Z,3.25
2022-07-29T21:44:04.811Z,3.85
2022-07-29T21:46:33.206Z,3.22
2022-07-29T21:49:01.673Z,2.67
2022-07-29T21:51:30.464Z,3.17
2022-07-29T21:53:58.868Z,2.83
2022-07-29T21:56:30.151Z,2.88
2022-07-29T21:59:00.095Z,3.80
2022-07-29T22:01:28.490Z,3.25
2022-07-29T22:04:07.459Z,4.00
2022-07-29T22:06:35.881Z,3.88
2022-07-29T22:09:04.453Z,3.00
2022-07-29T22:11:36.358Z,3.47
2022-07-29T22:14:04.824Z,3.40
2022-07-29T22:16:33.295Z,3.47
2022-07-29T22:19:03.776Z,3.35
2022-07-29T22:21:32.285Z,3.50
2022-07-29T22:24:01.619Z,3.45
2022-07-29T22:26:30.399Z,3.83
2022-07-29T22:29:00.119Z,4.00
2022-07-29T22:31:28.461Z,3.97
2022-07-29T22:33:57.010Z,2.45
2022-07-29T22:36:26.546Z,3.65
2022-07-29T22:38:54.936Z,3.97
2022-07-29T22:41:23.437Z,2.95
2022-07-29T22:43:51.763Z,3.88
2022-07-29T22:46:21.447Z,2.65
2022-07-29T22:48:50.334Z,2.20
2022-07-29T22:51:18.650Z,2.35
2022-07-29T22:53:47.321Z,4.00
2022-07-29T22:56:16.522Z,2.65
2022-07-29T22:58:44.803Z,2.50
2022-07-29T23:01:13.378Z,2.40
2022-07-29T23:03:51.263Z,2.85
2022-07-29T23:06:19.878Z,2.50
2022-07-29T23:08:48.429Z,2.20
2022-07-29T23:11:16.887Z,2.38
2022-07-29T23:13:45.282Z,2.05
2022-07-29T23:16:14.047Z,2.13
2022-07-29T23:18:55.949Z,2.50
2022-07-29T23:21:24.611Z,3.10
2022-07-29T23:23:53.433Z,2.22
2022-07-29T23:26:21.848Z,2.70
2022-07-29T23:28:50.317Z,2.58
2022-07-29T23:31:18.991Z,2.78
2022-07-29T23:33:47.349Z,2.58
2022-07-29T23:36:17.156Z,2.67
2022-07-29T23:38:46.736Z,2.70
2022-07-29T23:41:15.113Z,2.28
2022-07-29T23:43:43.664Z,1.70
2022-07-29T23:46:12.134Z,2.55
2022-07-29T23:48:40.550Z,2.58
2022-07-29T23:51:09.040Z,3.10
2022-07-29T23:53:38.805Z,2.90
2022-07-29T23:56:23.565Z,3.22
2022-07-29T23:58:51.857Z,2.97
